sensor_id;sensor_type;location;lat;lon;timestamp;pressure;altitude;pressure_sealevel;temperature;humidity
72423;BME280;60413;55.658;37.498;2023-03-16T00:47:11;98141.25;;;1.78;100.00
72423;BME280;60413;55.658;37.498;2023-03-16T02:09:43;98147.91;;;1.61;100.00
72423;BME280;60413;55.658;37.498;2023-03-16T02:12:27;98147.88;;;1.67;100.00
72423;BME280;60413;55.658;37.498;2023-03-16T02:15:08;98148.69;;;1.61;100.00
72423;BME280;60413;55.658;37.498;2023-03-16T02:17:58;98150.09;;;1.64;100.00
72423;BME280;60413;55.658;37.498;2023-03-16T02:24:27;98174.00;;;1.93;100.00
72423;BME280;60413;55.658;37.498;2023-03-16T02:30:19;98180.56;;;1.89;100.00
72423;BME280;60413;55.658;37.498;2023-03-16T02:32:58;98206.69;;;2.14;100.00
72423;BME280;60413;55.658;37.498;2023-03-16T02:35:28;98153.44;;;1.78;100.00
72423;BME280;60413;55.658;37.498;2023-03-16T02:37:56;98139.47;;;1.79;100.00
72423;BME280;60413;55.658;37.498;2023-03-16T02:40:32;98145.25;;;1.81;100.00
72423;BME280;60413;55.658;37.498;2023-03-16T02:43:17;98133.84;;;1.75;100.00
72423;BME280;60413;55.658;37.498;2023-03-16T02:46:06;98134.00;;;1.87;100.00
72423;BME280;60413;55.658;37.498;2023-03-16T02:49:07;98203.38;;;2.38;100.00
72423;BME280;60413;55.658;37.498;2023-03-16T02:51:50;98118.25;;;1.82;100.00
72423;BME280;60413;55.658;37.498;2023-03-16T02:54:35;98174.09;;;2.18;100.00
72423;BME280;60413;55.658;37.498;2023-03-16T02:57:13;98119.88;;;1.76;100.00
72423;BME280;60413;55.658;37.498;2023-03-16T02:59:52;98144.81;;;1.91;100.00
72423;BME280;60413;55.658;37.498;2023-03-16T03:08:18;98143.41;;;1.88;100.00
72423;BME280;60413;55.658;37.498;2023-03-16T03:13:47;98201.41;;;2.34;100.00
72423;BME280;60413;55.658;37.498;2023-03-16T03:16:30;98145.78;;;1.96;100.00
72423;BME280;60413;55.658;37.498;2023-03-16T03:19:00;98116.91;;;1.73;100.00
72423;BME280;60413;55.658;37.498;2023-03-16T03:24:35;98152.16;;;2.00;100.00
72423;BME280;60413;55.658;37.498;2023-03-16T03:27:07;98166.28;;;2.18;100.00
72423;BME280;60413;55.658;37.498;2023-03-16T03:29:38;98126.19;;;1.94;100.00
72423;BME280;60413;55.658;37.498;2023-03-16T03:32:12;98114.69;;;1.76;100.00
72423;BME280;60413;55.658;37.498;2023-03-16T03:35:03;98189.31;;;2.14;100.00
72423;BME280;60413;55.658;37.498;2023-03-16T03:37:30;98186.53;;;2.09;100.00
72423;BME280;60413;55.658;37.498;2023-03-16T03:39:56;98192.72;;;2.08;100.00
72423;BME280;60413;55.658;37.498;2023-03-16T03:42:25;98150.56;;;1.99;100.00
72423;BME280;60413;55.658;37.498;2023-03-16T03:44:54;98112.69;;;1.72;100.00
72423;BME280;60413;55.658;37.498;2023-03-16T03:47:21;98115.84;;;1.80;100.00
72423;BME280;60413;55.658;37.498;2023-03-16T03:50:05;98131.31;;;2.07;100.00
72423;BME280;60413;55.658;37.498;2023-03-16T03:52:46;98126.00;;;1.95;100.00
72423;BME280;60413;55.658;37.498;2023-03-16T04:07:11;98124.28;;;1.76;100.00
72423;BME280;60413;55.658;37.498;2023-03-16T04:10:03;98203.03;;;2.28;100.00
72423;BME280;60413;55.658;37.498;2023-03-16T04:13:18;98159.78;;;1.95;100.00
72423;BME280;60413;55.658;37.498;2023-03-16T04:16:08;98137.88;;;1.71;100.00
72423;BME280;60413;55.658;37.498;2023-03-16T04:18:42;98137.94;;;1.51;100.00
72423;BME280;60413;55.658;37.498;2023-03-16T04:21:36;98143.72;;;1.46;100.00
72423;BME280;60413;55.658;37.498;2023-03-16T04:24:45;98126.19;;;1.28;100.00
72423;BME280;60413;55.658;37.498;2023-03-16T04:27:15;98152.31;;;1.47;100.00
72423;BME280;60413;55.658;37.498;2023-03-16T04:29:48;98197.03;;;1.69;100.00
72423;BME280;60413;55.658;37.498;2023-03-16T04:32:37;98156.34;;;1.29;100.00
72423;BME280;60413;55.658;37.498;2023-03-16T04:35:10;98159.91;;;1.35;100.00
72423;BME280;60413;55.658;37.498;2023-03-16T04:38:02;98139.13;;;1.42;100.00
72423;BME280;60413;55.658;37.498;2023-03-16T04:40:49;98159.50;;;1.45;100.00
72423;BME280;60413;55.658;37.498;2023-03-16T04:43:20;98195.25;;;1.56;100.00
72423;BME280;60413;55.658;37.498;2023-03-16T04:45:53;98203.84;;;1.57;100.00
72423;BME280;60413;55.658;37.498;2023-03-16T04:48:28;98206.22;;;1.58;100.00
72423;BME280;60413;55.658;37.498;2023-03-16T04:53:46;98181.50;;;1.42;100.00
72423;BME280;60413;55.658;37.498;2023-03-16T04:56:38;98165.28;;;1.47;100.00
72423;BME280;60413;55.658;37.498;2023-03-16T05:02:36;98197.88;;;1.43;100.00
72423;BME280;60413;55.658;37.498;2023-03-16T05:05:57;98192.69;;;1.43;100.00
72423;BME280;60413;55.658;37.498;2023-03-16T05:09:00;98191.50;;;1.39;100.00
72423;BME280;60413;55.658;37.498;2023-03-16T05:14:25;98268.91;;;2.02;100.00
72423;BME280;60413;55.658;37.498;2023-03-16T05:17:31;98219.78;;;1.67;100.00
72423;BME280;60413;55.658;37.498;2023-03-16T05:19:58;98185.06;;;1.55;100.00
72423;BME280;60413;55.658;37.498;2023-03-16T05:22:26;98270.50;;;2.10;100.00
72423;BME280;60413;55.658;37.498;2023-03-16T05:25:45;98247.75;;;1.78;100.00
72423;BME280;60413;55.658;37.498;2023-03-16T05:31:27;98273.75;;;1.72;100.00
72423;BME280;60413;55.658;37.498;2023-03-16T05:33:59;98225.00;;;1.47;100.00
72423;BME280;60413;55.658;37.498;2023-03-16T05:45:35;98212.84;;;1.41;100.00
72423;BME280;60413;55.658;37.498;2023-03-16T05:48:54;98184.69;;;1.31;100.00
72423;BME280;60413;55.658;37.498;2023-03-16T05:58:25;98278.50;;;2.08;100.00
72423;BME280;60413;55.658;37.498;2023-03-16T06:01:22;98266.03;;;2.30;100.00
72423;BME280;60413;55.658;37.498;2023-03-16T06:03:52;98253.81;;;2.37;100.00
72423;BME280;60413;55.658;37.498;2023-03-16T06:09:29;98206.97;;;1.99;100.00
72423;BME280;60413;55.658;37.498;2023-03-16T06:12:34;98204.75;;;2.02;100.00
72423;BME280;60413;55.658;37.498;2023-03-16T06:15:25;98265.97;;;2.44;100.00
72423;BME280;60413;55.658;37.498;2023-03-16T06:18:09;98233.50;;;2.08;100.00
72423;BME280;60413;55.658;37.498;2023-03-16T06:20:57;98271.84;;;2.26;100.00
72423;BME280;60413;55.658;37.498;2023-03-16T06:23:59;98285.66;;;2.26;100.00
72423;BME280;60413;55.658;37.498;2023-03-16T06:26:44;98244.91;;;2.00;100.00
72423;BME280;60413;55.658;37.498;2023-03-16T06:29:48;98263.25;;;2.25;100.00
72423;BME280;60413;55.658;37.498;2023-03-16T06:32:56;98235.31;;;1.94;100.00
72423;BME280;60413;55.658;37.498;2023-03-16T06:35:57;98237.16;;;1.80;100.00
72423;BME280;60413;55.658;37.498;2023-03-16T06:39:51;98300.03;;;2.22;100.00
72423;BME280;60413;55.658;37.498;2023-03-16T06:42:56;98225.41;;;1.71;100.00
72423;BME280;60413;55.658;37.498;2023-03-16T07:00:11;98265.03;;;2.31;100.00
72423;BME280;60413;55.658;37.498;2023-03-16T07:03:16;98220.66;;;2.19;100.00
72423;BME280;60413;55.658;37.498;2023-03-16T07:15:09;98282.19;;;2.91;100.00
72423;BME280;60413;55.658;37.498;2023-03-16T07:21:18;98282.09;;;3.04;100.00
72423;BME280;60413;55.658;37.498;2023-03-16T07:23:52;98228.69;;;2.63;100.00
72423;BME280;60413;55.658;37.498;2023-03-16T07:26:52;98265.22;;;3.13;100.00
72423;BME280;60413;55.658;37.498;2023-03-16T07:30:26;98188.75;;;2.83;100.00
72423;BME280;60413;55.658;37.498;2023-03-16T07:32:53;98187.09;;;2.88;100.00
72423;BME280;60413;55.658;37.498;2023-03-16T07:38:12;98194.50;;;3.17;100.00
72423;BME280;60413;55.658;37.498;2023-03-16T07:44:32;98228.88;;;3.69;100.00
72423;BME280;60413;55.658;37.498;2023-03-16T07:47:19;98171.53;;;3.32;100.00
72423;BME280;60413;55.658;37.498;2023-03-16T07:50:13;98180.44;;;3.43;100.00
72423;BME280;60413;55.658;37.498;2023-03-16T07:52:49;98185.19;;;3.52;100.00
72423;BME280;60413;55.658;37.498;2023-03-16T07:55:30;98236.78;;;3.81;100.00
72423;BME280;60413;55.658;37.498;2023-03-16T07:58:00;98227.03;;;3.76;100.00
72423;BME280;60413;55.658;37.498;2023-03-16T08:00:52;98223.19;;;3.79;100.00
72423;BME280;60413;55.658;37.498;2023-03-16T08:03:28;98138.75;;;3.24;100.00
72423;BME280;60413;55.658;37.498;2023-03-16T08:05:55;98195.97;;;3.75;100.00
72423;BME280;60413;55.658;37.498;2023-03-16T08:08:35;98175.56;;;3.71;100.00
72423;BME280;60413;55.658;37.498;2023-03-16T08:11:33;98203.72;;;3.81;100.00
72423;BME280;60413;55.658;37.498;2023-03-16T08:14:24;98244.50;;;4.13;100.00
72423;BME280;60413;55.658;37.498;2023-03-16T08:18:09;98160.50;;;3.74;100.00
72423;BME280;60413;55.658;37.498;2023-03-16T08:21:11;98201.53;;;3.78;100.00
72423;BME280;60413;55.658;37.498;2023-03-16T08:23:42;98168.22;;;3.62;100.00
72423;BME280;60413;55.658;37.498;2023-03-16T08:26:23;98150.56;;;3.64;100.00
72423;BME280;60413;55.658;37.498;2023-03-16T08:29:10;98228.69;;;4.07;100.00
72423;BME280;60413;55.658;37.498;2023-03-16T08:32:01;98218.03;;;3.90;100.00
72423;BME280;60413;55.658;37.498;2023-03-16T08:34:50;98146.31;;;3.51;100.00
72423;BME280;60413;55.658;37.498;2023-03-16T08:37:26;98198.22;;;3.89;100.00
72423;BME280;60413;55.658;37.498;2023-03-16T08:39:59;98175.78;;;3.70;100.00
72423;BME280;60413;55.658;37.498;2023-03-16T08:42:40;98219.00;;;3.96;100.00
72423;BME280;60413;55.658;37.498;2023-03-16T08:45:32;98167.28;;;3.56;100.00
72423;BME280;60413;55.658;37.498;2023-03-16T08:48:02;98152.53;;;3.50;100.00
72423;BME280;60413;55.658;37.498;2023-03-16T08:50:50;98201.63;;;3.90;100.00
72423;BME280;60413;55.658;37.498;2023-03-16T08:53:31;98192.78;;;3.91;100.00
72423;BME280;60413;55.658;37.498;2023-03-16T08:56:06;98165.47;;;3.57;100.00
72423;BME280;60413;55.658;37.498;2023-03-16T08:58:38;98160.56;;;3.48;100.00
72423;BME280;60413;55.658;37.498;2023-03-16T09:04:55;98226.69;;;4.10;100.00
72423;BME280;60413;55.658;37.498;2023-03-16T09:08:13;98226.63;;;4.16;100.00
72423;BME280;60413;55.658;37.498;2023-03-16T09:11:19;98229.22;;;4.16;100.00
72423;BME280;60413;55.658;37.498;2023-03-16T09:14:18;98201.69;;;4.02;100.00
72423;BME280;60413;55.658;37.498;2023-03-16T09:19:53;98217.72;;;4.36;100.00
72423;BME280;60413;55.658;37.498;2023-03-16T09:32:26;98217.47;;;4.25;100.00
72423;BME280;60413;55.658;37.498;2023-03-16T09:36:54;98147.03;;;3.77;100.00
72423;BME280;60413;55.658;37.498;2023-03-16T09:44:09;98150.28;;;3.53;100.00
72423;BME280;60413;55.658;37.498;2023-03-16T09:46:58;98148.25;;;3.56;100.00
72423;BME280;60413;55.658;37.498;2023-03-16T09:53:12;98151.00;;;3.61;100.00
72423;BME280;60413;55.658;37.498;2023-03-16T09:56:13;98203.88;;;3.86;100.00
72423;BME280;60413;55.658;37.498;2023-03-16T09:59:21;98155.56;;;3.47;100.00
72423;BME280;60413;55.658;37.498;2023-03-16T10:05:56;98219.44;;;3.75;100.00
72423;BME280;60413;55.658;37.498;2023-03-16T10:09:05;98152.59;;;3.43;100.00
72423;BME280;60413;55.658;37.498;2023-03-16T10:11:48;98206.03;;;3.71;100.00
72423;BME280;60413;55.658;37.498;2023-03-16T10:14:39;98136.94;;;3.25;100.00
72423;BME280;60413;55.658;37.498;2023-03-16T10:20:51;98196.97;;;3.92;100.00
72423;BME280;60413;55.658;37.498;2023-03-16T10:23:51;98204.19;;;4.27;100.00
72423;BME280;60413;55.658;37.498;2023-03-16T10:26:32;98139.84;;;3.90;100.00
72423;BME280;60413;55.658;37.498;2023-03-16T10:29:11;98189.03;;;4.36;100.00
72423;BME280;60413;55.658;37.498;2023-03-16T10:32:17;98136.56;;;4.14;100.00
72423;BME280;60413;55.658;37.498;2023-03-16T10:41:32;98150.94;;;4.04;100.00
72423;BME280;60413;55.658;37.498;2023-03-16T10:44:22;98195.66;;;4.20;100.00
72423;BME280;60413;55.658;37.498;2023-03-16T10:47:27;98147.31;;;3.87;100.00
72423;BME280;60413;55.658;37.498;2023-03-16T10:56:50;98222.09;;;4.42;100.00
72423;BME280;60413;55.658;37.498;2023-03-16T10:59:51;98177.69;;;4.30;100.00
72423;BME280;60413;55.658;37.498;2023-03-16T11:02:44;98154.31;;;4.05;100.00
72423;BME280;60413;55.658;37.498;2023-03-16T11:05:39;98153.53;;;4.04;100.00
72423;BME280;60413;55.658;37.498;2023-03-16T11:08:16;98221.66;;;4.45;100.00
72423;BME280;60413;55.658;37.498;2023-03-16T11:11:23;98213.59;;;4.47;100.00
72423;BME280;60413;55.658;37.498;2023-03-16T11:14:17;98226.44;;;4.48;100.00
72423;BME280;60413;55.658;37.498;2023-03-16T11:20:49;98159.06;;;3.96;100.00
72423;BME280;60413;55.658;37.498;2023-03-16T11:24:03;98208.91;;;4.37;100.00
72423;BME280;60413;55.658;37.498;2023-03-16T11:34:11;98177.44;;;3.64;100.00
72423;BME280;60413;55.658;37.498;2023-03-16T11:55:20;98251.78;;;3.85;100.00
72423;BME280;60413;55.658;37.498;2023-03-16T11:58:52;98167.91;;;3.33;100.00
72423;BME280;60413;55.658;37.498;2023-03-16T12:11:13;98255.00;;;4.06;100.00
72423;BME280;60413;55.658;37.498;2023-03-16T12:14:04;98188.09;;;4.00;100.00
72423;BME280;60413;55.658;37.498;2023-03-16T12:20:01;98223.25;;;4.46;100.00
72423;BME280;60413;55.658;37.498;2023-03-16T12:23:09;98252.16;;;4.44;100.00
72423;BME280;60413;55.658;37.498;2023-03-16T12:26:16;98186.13;;;3.95;100.00
72423;BME280;60413;55.658;37.498;2023-03-16T12:28:54;98195.34;;;3.98;100.00
72423;BME280;60413;55.658;37.498;2023-03-16T12:36:08;98250.78;;;4.05;100.00
72423;BME280;60413;55.658;37.498;2023-03-16T12:39:16;98221.66;;;3.52;100.00
72423;BME280;60413;55.658;37.498;2023-03-16T12:42:39;98243.66;;;3.75;100.00
72423;BME280;60413;55.658;37.498;2023-03-16T13:05:55;98348.84;;;3.24;100.00
72423;BME280;60413;55.658;37.498;2023-03-16T13:36:09;98349.28;;;3.21;100.00
72423;BME280;60413;55.658;37.498;2023-03-16T13:39:23;98340.38;;;3.03;100.00
72423;BME280;60413;55.658;37.498;2023-03-16T13:42:46;98363.38;;;3.06;100.00
72423;BME280;60413;55.658;37.498;2023-03-16T14:00:12;98301.94;;;2.53;100.00
72423;BME280;60413;55.658;37.498;2023-03-16T14:23:26;98307.22;;;2.33;100.00
72423;BME280;60413;55.658;37.498;2023-03-16T14:30:32;98313.66;;;2.24;100.00
72423;BME280;60413;55.658;37.498;2023-03-16T14:50:07;98368.38;;;2.56;100.00
72423;BME280;60413;55.658;37.498;2023-03-16T14:52:47;98326.84;;;2.22;100.00
72423;BME280;60413;55.658;37.498;2023-03-16T15:01:40;98341.44;;;2.17;100.00
72423;BME280;60413;55.658;37.498;2023-03-16T15:04:39;98338.84;;;2.10;100.00
72423;BME280;60413;55.658;37.498;2023-03-16T15:07:39;98345.47;;;1.99;100.00
72423;BME280;60413;55.658;37.498;2023-03-16T15:11:12;98346.47;;;1.98;100.00
72423;BME280;60413;55.658;37.498;2023-03-16T15:15:13;98333.09;;;1.88;100.00
72423;BME280;60413;55.658;37.498;2023-03-16T15:18:57;98356.66;;;1.93;100.00
72423;BME280;60413;55.658;37.498;2023-03-16T15:40:57;98381.06;;;1.85;100.00
72423;BME280;60413;55.658;37.498;2023-03-16T15:44:12;98369.66;;;1.73;100.00
72423;BME280;60413;55.658;37.498;2023-03-16T15:47:03;98376.28;;;1.82;100.00
72423;BME280;60413;55.658;37.498;2023-03-16T15:50:22;98391.88;;;1.89;100.00
72423;BME280;60413;55.658;37.498;2023-03-16T16:29:31;98440.34;;;1.55;100.00
72423;BME280;60413;55.658;37.498;2023-03-16T16:32:23;98474.38;;;1.74;100.00
72423;BME280;60413;55.658;37.498;2023-03-16T16:38:15;98507.75;;;1.77;100.00
72423;BME280;60413;55.658;37.498;2023-03-16T16:40:53;98538.78;;;1.98;100.00
72423;BME280;60413;55.658;37.498;2023-03-16T16:43:51;98487.53;;;1.59;100.00
72423;BME280;60413;55.658;37.498;2023-03-16T16:46:21;98469.31;;;1.39;100.00
72423;BME280;60413;55.658;37.498;2023-03-16T16:49:00;98560.13;;;1.87;100.00
72423;BME280;60413;55.658;37.498;2023-03-16T16:51:34;98541.56;;;1.90;100.00
72423;BME280;60413;55.658;37.498;2023-03-16T16:54:00;98525.13;;;1.70;100.00
72423;BME280;60413;55.658;37.498;2023-03-16T16:56:36;98484.91;;;1.45;100.00
72423;BME280;60413;55.658;37.498;2023-03-16T16:59:38;98549.16;;;1.92;100.00
72423;BME280;60413;55.658;37.498;2023-03-16T17:02:51;98518.34;;;1.75;100.00
72423;BME280;60413;55.658;37.498;2023-03-16T17:37:22;98567.88;;;1.74;100.00
72423;BME280;60413;55.658;37.498;2023-03-16T17:41:27;98508.44;;;1.37;100.00
72423;BME280;60413;55.658;37.498;2023-03-16T18:37:41;98617.78;;;1.21;100.00
72423;BME280;60413;55.658;37.498;2023-03-16T18:43:53;98541.56;;;0.65;100.00
72423;BME280;60413;55.658;37.498;2023-03-16T18:46:42;98559.06;;;0.63;100.00
72423;BME280;60413;55.658;37.498;2023-03-16T18:49:30;98551.09;;;0.65;100.00
72423;BME280;60413;55.658;37.498;2023-03-16T18:52:21;98582.16;;;0.80;100.00
72423;BME280;60413;55.658;37.498;2023-03-16T18:54:55;98638.25;;;1.09;100.00
72423;BME280;60413;55.658;37.498;2023-03-16T18:57:51;98568.47;;;0.64;100.00
72423;BME280;60413;55.658;37.498;2023-03-16T19:08:48;98646.69;;;0.89;100.00
72423;BME280;60413;55.658;37.498;2023-03-16T19:18:59;98665.19;;;1.08;100.00
72423;BME280;60413;55.658;37.498;2023-03-16T19:24:59;98595.19;;;0.43;100.00
72423;BME280;60413;55.658;37.498;2023-03-16T19:36:44;98665.75;;;1.03;100.00
72423;BME280;60413;55.658;37.498;2023-03-16T19:40:05;98679.16;;;1.07;100.00
72423;BME280;60413;55.658;37.498;2023-03-16T19:44:35;98626.91;;;0.67;100.00
72423;BME280;60413;55.658;37.498;2023-03-16T19:56:13;98701.03;;;0.98;100.00
72423;BME280;60413;55.658;37.498;2023-03-16T20:19:49;98703.63;;;0.98;100.00
72423;BME280;60413;55.658;37.498;2023-03-16T20:22:48;98646.94;;;0.51;100.00
72423;BME280;60413;55.658;37.498;2023-03-16T20:37:25;98649.63;;;0.43;100.00
72423;BME280;60413;55.658;37.498;2023-03-16T20:39:54;98684.63;;;0.69;100.00
72423;BME280;60413;55.658;37.498;2023-03-16T20:42:30;98700.97;;;0.69;100.00
72423;BME280;60413;55.658;37.498;2023-03-16T20:58:51;98697.56;;;0.47;100.00
72423;BME280;60413;55.658;37.498;2023-03-16T21:01:30;98671.78;;;0.24;100.00
72423;BME280;60413;55.658;37.498;2023-03-16T21:43:19;98708.59;;;0.20;100.00
72423;BME280;60413;55.658;37.498;2023-03-16T21:49:02;98736.13;;;0.35;100.00
72423;BME280;60413;55.658;37.498;2023-03-16T21:51:38;98690.66;;;0.03;100.00
72423;BME280;60413;55.658;37.498;2023-03-16T21:54:22;98795.31;;;0.68;100.00
72423;BME280;60413;55.658;37.498;2023-03-16T21:56:55;98785.41;;;0.72;100.00
72423;BME280;60413;55.658;37.498;2023-03-16T21:59:27;98723.34;;;0.19;100.00
72423;BME280;60413;55.658;37.498;2023-03-16T22:02:01;98798.47;;;0.64;100.00
72423;BME280;60413;55.658;37.498;2023-03-16T22:05:30;98719.06;;;0.11;100.00
72423;BME280;60413;55.658;37.498;2023-03-16T22:49:26;98837.75;;;0.61;100.00
72423;BME280;60413;55.658;37.498;2023-03-16T22:52:19;98746.41;;;-0.01;100.00
72423;BME280;60413;55.658;37.498;2023-03-16T23:03:54;98785.63;;;0.11;100.00
72423;BME280;60413;55.658;37.498;2023-03-16T23:06:29;98775.72;;;0.14;100.00
72423;BME280;60413;55.658;37.498;2023-03-16T23:29:45;98814.34;;;0.24;100.00
72423;BME280;60413;55.658;37.498;2023-03-16T23:32:34;98798.31;;;0.06;100.00
72423;BME280;60413;55.658;37.498;2023-03-16T23:35:14;98821.56;;;0.14;100.00
72423;BME280;60413;55.658;37.498;2023-03-16T23:38:15;98814.16;;;0.11;100.00
72423;BME280;60413;55.658;37.498;2023-03-16T23:40:48;98828.91;;;0.25;100.00
72423;BME280;60413;55.658;37.498;2023-03-16T23:43:38;98812.97;;;0.13;100.00
72423;BME280;60413;55.658;37.498;2023-03-16T23:46:20;98875.84;;;0.45;100.00
72423;BME280;60413;55.658;37.498;2023-03-16T23:52:06;98838.19;;;0.34;100.00
72423;BME280;60413;55.658;37.498;2023-03-16T23:55:05;98851.69;;;0.30;100.00
72423;BME280;60413;55.658;37.498;2023-03-16T23:57:45;98818.25;;;0.05;100.00
